Time;durP1;ratioP1;P1;durP2;ratioP2;P2;SDS_P1;SDS_P2;PMS_P1;PMS_P2;Temp;Humidity;BMP_temperature;BMP_pressure;BME280_temperature;BME280_humidity;BME280_pressure;Samples;Min_cycle;Max_cycle;Signal;HPM_P1;HPM_P2
2021/07/26 00:02:01;;;;;;;14.55;10.82;;;31.10;99.40;;;;;;6259886;23;20171;-93
2021/07/26 00:04:32;;;;;;;2.75;2.22;;;30.50;99.40;;;;;;6266263;23;20176;-93
2021/07/26 00:07:04;;;;;;;7.10;3.90;;;30.60;99.50;;;;;;6273922;22;20188;-93
2021/07/26 00:09:36;;;;;;;37.92;22.85;;;30.70;99.90;;;;;;6273941;22;20225;-93
2021/07/26 00:12:09;;;;;;;5.32;2.95;;;30.80;99.40;;;;;;6272957;22;20222;-93
2021/07/26 00:14:40;;;;;;;4.47;3.47;;;30.60;99.40;;;;;;6247043;23;20171;-91
2021/07/26 00:17:11;;;;;;;1.90;1.70;;;30.60;99.30;;;;;;6271989;22;20188;-92
2021/07/26 00:19:42;;;;;;;1.88;1.60;;;30.60;99.50;;;;;;6240926;23;20203;-91
2021/07/26 00:22:12;;;;;;;2.22;1.60;;;30.80;99.90;;;;;;6255072;23;20179;-91
2021/07/26 00:24:43;;;;;;;2.17;1.90;;;30.70;99.50;;;;;;6250174;23;20235;-91
2021/07/26 00:27:16;;;;;;;3.38;1.92;;;30.50;99.90;;;;;;6249170;23;20207;-91
2021/07/26 00:29:47;;;;;;;2.75;1.50;;;30.60;99.90;;;;;;6249101;23;20175;-91
2021/07/26 00:32:18;;;;;;;1.95;1.67;;;30.60;99.80;;;;;;6247905;23;20206;-91
2021/07/26 00:34:50;;;;;;;2.27;1.80;;;30.40;99.90;;;;;;6249577;23;20186;-91
2021/07/26 00:37:25;;;;;;;2.50;1.43;;;30.30;99.90;;;;;;6249797;23;20611;-89
2021/07/26 00:39:58;;;;;;;2.03;1.40;;;30.20;99.90;;;;;;6248894;23;20644;-91
2021/07/26 00:42:30;;;;;;;1.88;1.58;;;30.30;99.90;;;;;;6247756;23;20198;-90
2021/07/26 00:45:02;;;;;;;1.95;1.40;;;30.20;99.40;;;;;;6250253;23;20179;-92
2021/07/26 00:47:33;;;;;;;1.20;1.00;;;30.10;99.90;;;;;;6248489;23;20565;-91
2021/07/26 00:50:07;;;;;;;2.37;1.60;;;30.00;99.60;;;;;;6242762;23;20183;-91
2021/07/26 00:52:39;;;;;;;3.47;1.23;;;30.20;99.90;;;;;;6249096;23;20168;-92
2021/07/26 00:55:11;;;;;;;4.00;1.67;;;30.20;99.10;;;;;;6250177;23;20183;-92
2021/07/26 00:57:45;;;;;;;2.00;1.20;;;30.10;99.20;;;;;;6248509;23;20176;-91
2021/07/26 01:00:16;;;;;;;2.23;1.23;;;29.90;99.50;;;;;;6249949;23;20480;-91
2021/07/26 01:02:48;;;;;;;1.57;1.20;;;29.80;98.90;;;;;;6247045;23;20623;-91
2021/07/26 01:05:20;;;;;;;2.43;1.20;;;29.80;99.70;;;;;;6247794;23;20615;-91
2021/07/26 01:07:55;;;;;;;1.93;1.03;;;30.00;99.80;;;;;;6267727;23;20206;-91
2021/07/26 01:10:26;;;;;;;2.27;1.40;;;30.40;99.70;;;;;;6224582;23;20191;-90
2021/07/26 01:12:59;;;;;;;2.43;1.10;;;30.80;98.70;;;;;;6246340;23;20619;-91
2021/07/26 01:15:29;;;;;;;1.47;0.93;;;31.10;98.40;;;;;;6247896;23;20690;-90
2021/07/26 01:18:22;;;;;;;2.83;1.70;;;31.50;98.00;;;;;;6221210;23;20176;-92
2021/07/26 01:20:56;;;;;;;1.93;1.63;;;31.90;98.40;;;;;;6248150;23;20654;-91
2021/07/26 01:23:29;;;;;;;1.60;1.20;;;31.80;97.80;;;;;;6248547;23;20174;-92
2021/07/26 01:26:00;;;;;;;1.70;1.20;;;31.80;97.60;;;;;;6249016;23;20199;-91
2021/07/26 01:28:34;;;;;;;2.07;1.20;;;32.10;97.10;;;;;;6250403;23;20176;-91
2021/07/26 01:31:10;;;;;;;1.73;1.00;;;32.10;97.30;;;;;;6249347;23;20242;-91
2021/07/26 01:33:42;;;;;;;1.77;1.30;;;32.00;96.90;;;;;;6246945;23;20194;-91
2021/07/26 01:36:16;;;;;;;2.30;1.00;;;32.00;97.50;;;;;;6249635;23;20172;-91
2021/07/26 01:38:51;;;;;;;1.30;1.02;;;32.20;97.10;;;;;;6249623;23;20171;-90
2021/07/26 01:41:23;;;;;;;1.33;1.03;;;32.20;96.70;;;;;;6247138;23;20168;-92
2021/07/26 01:47:05;;;;;;;1.37;1.20;;;31.50;96.70;;;;;;6258307;23;20195;-91
2021/07/26 01:49:53;;;;;;;1.00;0.80;;;31.40;97.00;;;;;;6264042;23;20210;-91
2021/07/26 01:52:26;;;;;;;0.80;0.80;;;31.50;96.10;;;;;;6245709;23;20184;-91
2021/07/26 01:57:50;;;;;;;1.30;1.10;;;31.50;96.80;;;;;;6250038;23;20684;-91
2021/07/26 02:00:21;;;;;;;1.60;1.20;;;31.50;96.80;;;;;;6248157;23;20547;-91
2021/07/26 02:02:52;;;;;;;1.23;0.83;;;31.70;96.60;;;;;;6226849;23;20195;-91
2021/07/26 02:05:23;;;;;;;2.17;1.10;;;31.50;96.60;;;;;;6248964;23;20175;-91
2021/07/26 02:07:55;;;;;;;4.23;1.20;;;31.50;96.80;;;;;;6221066;23;20192;-91
2021/07/26 02:10:27;;;;;;;0.80;0.80;;;31.30;96.30;;;;;;6247459;23;20199;-91
2021/07/26 02:12:59;;;;;;;1.13;1.00;;;30.80;97.20;;;;;;6246892;23;20597;-91
2021/07/26 02:15:31;;;;;;;2.20;1.03;;;29.80;97.50;;;;;;6247054;23;20697;-91
2021/07/26 02:18:02;;;;;;;1.30;0.90;;;29.00;98.80;;;;;;6247692;23;20171;-92
2021/07/26 02:20:33;;;;;;;0.83;0.80;;;28.20;99.40;;;;;;6247701;23;20171;-91
2021/07/26 02:23:07;;;;;;;1.47;1.10;;;27.60;99.90;;;;;;6248777;23;20226;-92
2021/07/26 02:25:38;;;;;;;1.50;1.00;;;27.00;99.90;;;;;;6249715;23;20199;-92
2021/07/26 02:28:10;;;;;;;2.53;1.43;;;26.40;99.90;;;;;;6222706;23;20222;-92
2021/07/26 02:30:41;;;;;;;1.73;1.30;;;26.20;99.90;;;;;;6248036;23;20164;-92
2021/07/26 02:33:11;;;;;;;3.23;1.37;;;25.90;99.90;;;;;;6247387;23;20211;-92
2021/07/26 02:35:45;;;;;;;1.47;1.10;;;25.80;99.90;;;;;;6224501;23;20202;-92
2021/07/26 02:38:19;;;;;;;1.97;1.20;;;25.60;99.90;;;;;;6272089;22;20174;-93
2021/07/26 02:40:53;;;;;;;2.47;1.30;;;25.40;99.90;;;;;;6272233;22;20174;-92
2021/07/26 02:43:24;;;;;;;1.57;1.20;;;25.30;99.90;;;;;;6237924;23;20239;-92
2021/07/26 02:45:55;;;;;;;2.50;1.20;;;25.10;99.90;;;;;;6251751;23;20254;-90
2021/07/26 02:48:26;;;;;;;4.10;1.20;;;25.00;99.90;;;;;;6227218;23;20517;-91
2021/07/26 02:50:58;;;;;;;2.23;1.40;;;24.80;99.90;;;;;;6247653;23;20179;-91
2021/07/26 02:53:31;;;;;;;3.40;1.13;;;24.70;99.90;;;;;;6246517;23;20171;-91
2021/07/26 02:56:02;;;;;;;6.00;1.50;;;24.60;99.90;;;;;;6246768;23;20164;-91
2021/07/26 02:58:37;;;;;;;1.17;1.00;;;24.50;99.90;;;;;;6247200;23;20195;-91
2021/07/26 03:01:11;;;;;;;2.90;1.30;;;24.40;99.90;;;;;;6248094;23;20182;-91
2021/07/26 03:03:43;;;;;;;2.00;1.13;;;24.30;99.90;;;;;;6248252;23;20176;-91
2021/07/26 03:06:18;;;;;;;3.90;1.70;;;24.10;99.90;;;;;;6249699;23;20186;-92
2021/07/26 03:08:51;;;;;;;2.53;1.27;;;24.00;99.90;;;;;;6247155;23;20186;-92
2021/07/26 03:11:22;;;;;;;1.60;1.23;;;23.90;99.90;;;;;;6246933;23;20222;-93
2021/07/26 03:13:53;;;;;;;1.90;1.30;;;23.80;99.90;;;;;;6248150;23;20266;-91
2021/07/26 03:16:25;;;;;;;1.80;1.17;;;23.70;99.90;;;;;;6251173;23;20202;-91
2021/07/26 03:18:56;;;;;;;3.07;1.53;;;23.60;99.90;;;;;;6269073;23;20163;-89
2021/07/26 03:21:27;;;;;;;1.97;1.30;;;23.40;99.90;;;;;;6260342;23;20614;-92
2021/07/26 03:24:01;;;;;;;1.53;1.23;;;23.30;99.90;;;;;;6250180;23;20180;-91
2021/07/26 03:26:32;;;;;;;2.63;1.40;;;23.20;99.90;;;;;;6248849;23;20225;-92
2021/07/26 03:29:03;;;;;;;1.70;1.30;;;23.10;99.90;;;;;;6248364;23;20176;-91
2021/07/26 03:31:37;;;;;;;3.30;1.47;;;23.10;99.90;;;;;;6247072;23;20515;-91
2021/07/26 03:34:09;;;;;;;3.30;1.50;;;22.90;99.90;;;;;;6247278;23;20187;-91
2021/07/26 03:36:40;;;;;;;1.57;1.10;;;22.80;99.90;;;;;;6246906;23;20187;-91
2021/07/26 03:39:16;;;;;;;1.87;1.20;;;22.60;99.90;;;;;;6246275;23;20185;-91
2021/07/26 03:41:47;;;;;;;6.53;1.63;;;22.50;99.90;;;;;;6245503;23;20176;-92
2021/07/26 03:44:18;;;;;;;2.07;1.50;;;22.40;99.90;;;;;;6248100;23;20175;-91
2021/07/26 03:46:49;;;;;;;2.77;1.40;;;22.30;99.90;;;;;;6246815;23;20740;-92
2021/07/26 03:49:20;;;;;;;1.93;1.27;;;22.10;99.90;;;;;;6247125;23;20544;-91
2021/07/26 03:51:51;;;;;;;2.17;1.20;;;22.00;99.90;;;;;;6245300;23;20482;-90
2021/07/26 03:54:24;;;;;;;3.43;1.10;;;21.80;99.90;;;;;;6247020;23;20172;-91
2021/07/26 03:56:58;;;;;;;3.20;1.30;;;21.70;99.90;;;;;;6247449;23;20179;-91
2021/07/26 03:59:29;;;;;;;3.40;1.30;;;21.60;99.90;;;;;;6247286;23;20163;-90
2021/07/26 04:02:00;;;;;;;2.87;1.20;;;21.50;99.90;;;;;;6246563;23;20279;-91
2021/07/26 04:04:31;;;;;;;2.03;1.27;;;21.30;99.90;;;;;;6248998;23;20610;-91
2021/07/26 04:07:05;;;;;;;1.60;1.00;;;21.20;99.90;;;;;;6247592;23;20175;-91
2021/07/26 04:09:42;;;;;;;4.93;1.10;;;21.10;99.90;;;;;;6250344;23;20172;-92
2021/07/26 04:12:16;;;;;;;2.33;1.13;;;21.00;99.90;;;;;;6249190;23;20274;-92
2021/07/26 04:14:47;;;;;;;2.63;1.10;;;20.90;99.90;;;;;;6221605;23;20188;-91
2021/07/26 04:17:18;;;;;;;1.73;1.33;;;20.90;99.90;;;;;;6221547;23;20626;-91
2021/07/26 04:19:49;;;;;;;3.33;1.43;;;20.70;99.90;;;;;;6247936;23;20168;-90
2021/07/26 04:22:22;;;;;;;1.60;1.03;;;20.70;99.90;;;;;;6221287;23;20179;-91
2021/07/26 04:24:56;;;;;;;1.27;0.87;;;20.70;99.90;;;;;;6247807;23;20243;-91
2021/07/26 04:27:27;;;;;;;2.07;1.20;;;20.50;99.90;;;;;;6250333;23;20506;-91
2021/07/26 04:30:00;;;;;;;2.40;1.13;;;20.40;99.90;;;;;;6248161;23;20606;-91
2021/07/26 04:32:31;;;;;;;1.67;1.00;;;20.30;99.90;;;;;;6246335;23;20176;-91
2021/07/26 04:35:04;;;;;;;3.67;1.33;;;20.30;99.90;;;;;;6247565;23;20180;-90
2021/07/26 04:37:35;;;;;;;2.70;1.20;;;20.20;99.90;;;;;;6247831;23;20176;-91
2021/07/26 04:40:10;;;;;;;2.47;1.00;;;20.10;99.90;;;;;;6247690;23;20503;-91
2021/07/26 04:42:42;;;;;;;1.17;0.90;;;20.00;99.90;;;;;;6246822;23;20221;-91
2021/07/26 04:45:15;;;;;;;2.67;1.20;;;19.90;99.90;;;;;;6248009;23;20179;-91
2021/07/26 04:47:46;;;;;;;3.10;1.33;;;19.90;99.90;;;;;;6249594;23;20192;-91
2021/07/26 04:50:17;;;;;;;2.30;1.07;;;19.80;99.90;;;;;;6248923;23;20186;-90
2021/07/26 04:52:48;;;;;;;1.30;1.20;;;19.80;99.90;;;;;;6247402;23;20180;-91
2021/07/26 04:55:22;;;;;;;1.40;1.20;;;19.70;99.90;;;;;;6248632;23;20566;-90
2021/07/26 04:57:53;;;;;;;1.77;1.03;;;19.60;99.90;;;;;;6249469;23;20329;-91
2021/07/26 05:00:26;;;;;;;2.00;1.07;;;19.60;99.90;;;;;;6249245;23;20306;-90
2021/07/26 05:02:57;;;;;;;2.40;1.40;;;19.50;99.90;;;;;;6256791;23;20164;-91
2021/07/26 05:05:29;;;;;;;3.23;1.80;;;19.40;99.90;;;;;;6271631;22;20179;-91
2021/07/26 05:08:01;;;;;;;2.73;1.30;;;19.30;99.90;;;;;;6272920;22;20203;-90
2021/07/26 05:10:35;;;;;;;3.97;1.60;;;19.30;99.90;;;;;;6270848;22;20191;-90
2021/07/26 05:13:05;;;;;;;3.67;1.30;;;19.20;99.90;;;;;;6260179;23;20218;-92
2021/07/26 05:15:36;;;;;;;2.37;1.27;;;19.10;99.90;;;;;;6261856;23;20175;-92
2021/07/26 05:18:07;;;;;;;1.50;1.00;;;19.10;99.90;;;;;;6262313;23;20175;-91
2021/07/26 05:20:38;;;;;;;1.10;0.97;;;19.10;99.90;;;;;;6264233;22;20156;-91
2021/07/26 05:23:11;;;;;;;1.63;1.23;;;19.00;99.90;;;;;;6237590;23;20241;-90
2021/07/26 05:25:47;;;;;;;3.43;1.30;;;18.90;99.90;;;;;;6259857;22;20234;-91
2021/07/26 05:28:17;;;;;;;1.43;0.90;;;18.90;99.90;;;;;;6266809;22;20203;-91
2021/07/26 05:30:48;;;;;;;3.23;1.50;;;18.90;99.90;;;;;;6270771;22;20168;-90
2021/07/26 05:33:20;;;;;;;1.33;1.10;;;18.80;99.90;;;;;;6258623;23;20190;-90
2021/07/26 05:35:51;;;;;;;2.47;1.20;;;18.80;99.90;;;;;;6257892;23;20281;-90
2021/07/26 05:38:22;;;;;;;2.43;1.13;;;18.80;99.90;;;;;;6257377;23;20179;-90
2021/07/26 05:40:57;;;;;;;2.90;1.43;;;18.70;99.90;;;;;;6248694;23;20237;-90
2021/07/26 05:43:28;;;;;;;2.57;1.40;;;18.70;99.90;;;;;;6247131;23;20175;-90
2021/07/26 05:46:00;;;;;;;2.03;1.10;;;18.70;99.90;;;;;;6249615;23;20180;-90
2021/07/26 05:48:31;;;;;;;2.20;1.10;;;18.60;99.90;;;;;;6255462;23;20264;-91
2021/07/26 05:51:03;;;;;;;3.40;1.43;;;18.60;99.90;;;;;;6258400;23;20473;-91
2021/07/26 05:53:35;;;;;;;4.20;1.50;;;18.60;99.90;;;;;;6258359;23;20176;-91
2021/07/26 05:56:12;;;;;;;1.37;0.90;;;18.60;99.90;;;;;;6232831;23;20164;-91
2021/07/26 05:58:52;;;;;;;1.87;1.10;;;18.50;99.90;;;;;;6259224;23;20570;-89
2021/07/26 06:01:48;;;;;;;2.63;1.40;;;18.40;99.90;;;;;;6258825;23;20619;-92
2021/07/26 06:04:21;;;;;;;1.70;1.30;;;18.40;99.90;;;;;;6262246;23;20183;-90
2021/07/26 06:06:57;;;;;;;2.90;1.20;;;18.30;99.90;;;;;;6266435;23;20173;-90
2021/07/26 06:09:29;;;;;;;1.53;1.00;;;18.20;99.90;;;;;;6266045;23;20226;-91
2021/07/26 06:12:03;;;;;;;3.37;1.20;;;18.20;99.90;;;;;;6259279;23;20179;-91
2021/07/26 06:14:35;;;;;;;2.63;1.40;;;18.10;99.90;;;;;;6258390;23;20168;-91
2021/07/26 06:17:10;;;;;;;1.67;1.30;;;18.10;99.90;;;;;;6257764;23;20195;-91
2021/07/26 06:19:41;;;;;;;1.97;1.20;;;18.10;99.90;;;;;;6252086;23;20191;-90
2021/07/26 06:22:14;;;;;;;1.63;1.00;;;18.10;99.90;;;;;;6250413;23;20178;-91
2021/07/26 06:24:46;;;;;;;1.60;1.10;;;18.00;99.90;;;;;;6223603;23;20195;-91
2021/07/26 06:27:18;;;;;;;2.50;1.27;;;18.00;99.90;;;;;;6222076;23;20202;-91
2021/07/26 06:29:52;;;;;;;6.33;1.37;;;17.90;99.90;;;;;;6247226;23;20243;-91
2021/07/26 06:32:23;;;;;;;2.50;1.30;;;17.90;99.90;;;;;;6245976;23;20630;-91
2021/07/26 06:34:55;;;;;;;2.57;1.27;;;17.80;99.90;;;;;;6246428;23;20175;-93
2021/07/26 06:37:26;;;;;;;1.97;1.40;;;17.70;99.90;;;;;;6220804;23;20559;-92
2021/07/26 06:39:57;;;;;;;1.40;1.10;;;17.70;99.90;;;;;;6247839;23;20180;-93
2021/07/26 06:42:29;;;;;;;2.50;1.00;;;17.70;99.90;;;;;;6247263;23;20234;-93
2021/07/26 06:45:00;;;;;;;1.53;1.10;;;17.60;99.90;;;;;;6249347;23;20186;-94
2021/07/26 06:47:31;;;;;;;1.70;1.10;;;17.60;99.90;;;;;;6247973;23;20241;-93
2021/07/26 06:50:06;;;;;;;3.00;1.17;;;17.60;99.90;;;;;;6249590;23;20218;-90
2021/07/26 06:52:37;;;;;;;2.17;1.17;;;17.50;99.90;;;;;;6224078;23;20246;-91
2021/07/26 06:55:10;;;;;;;3.83;1.20;;;17.50;99.90;;;;;;6249486;23;20560;-92
2021/07/26 06:57:43;;;;;;;1.90;1.20;;;17.50;99.90;;;;;;6247485;23;20183;-93
2021/07/26 07:00:16;;;;;;;5.10;1.20;;;17.50;99.90;;;;;;6248267;23;20218;-93
2021/07/26 07:02:48;;;;;;;1.87;1.30;;;17.30;99.90;;;;;;6246789;23;20175;-93
2021/07/26 07:05:19;;;;;;;3.23;1.20;;;17.30;99.90;;;;;;6248246;23;20219;-91
2021/07/26 07:07:50;;;;;;;1.37;1.00;;;17.30;99.90;;;;;;6246975;23;20202;-92
2021/07/26 07:10:22;;;;;;;1.43;0.90;;;17.20;99.90;;;;;;6247797;23;20650;-92
2021/07/26 07:12:55;;;;;;;1.27;1.10;;;17.20;99.90;;;;;;6246026;23;20227;-92
2021/07/26 07:15:27;;;;;;;5.03;1.20;;;17.10;99.90;;;;;;6247345;23;20664;-91
2021/07/26 07:17:57;;;;;;;2.47;1.20;;;17.10;99.90;;;;;;6250487;23;20176;-92
2021/07/26 07:20:29;;;;;;;1.00;0.80;;;17.00;99.90;;;;;;6247865;23;20178;-91
2021/07/26 07:23:00;;;;;;;3.30;1.30;;;17.00;99.90;;;;;;6246441;23;20187;-92
2021/07/26 07:25:31;;;;;;;2.20;0.83;;;17.00;99.90;;;;;;6247374;23;20179;-92
2021/07/26 07:28:05;;;;;;;2.30;1.00;;;17.00;99.90;;;;;;6247352;23;20267;-92
2021/07/26 07:30:36;;;;;;;1.30;1.00;;;17.00;99.90;;;;;;6247091;23;20227;-90
2021/07/26 07:33:07;;;;;;;1.27;0.87;;;16.90;99.90;;;;;;6259613;23;20164;-90
2021/07/26 07:35:39;;;;;;;2.10;1.10;;;16.90;99.90;;;;;;6271332;22;20179;-92
2021/07/26 07:38:10;;;;;;;1.80;1.10;;;16.80;99.90;;;;;;6273577;22;20166;-92
2021/07/26 07:40:42;;;;;;;1.00;0.90;;;16.90;99.90;;;;;;6230741;23;20168;-91
2021/07/26 07:43:14;;;;;;;1.87;1.30;;;16.80;99.90;;;;;;6250395;23;20180;-91
2021/07/26 07:45:45;;;;;;;1.97;1.20;;;16.70;99.90;;;;;;6249838;23;20163;-92
2021/07/26 07:48:19;;;;;;;1.30;0.90;;;16.60;99.90;;;;;;6249847;23;20160;-92
2021/07/26 07:50:50;;;;;;;1.50;1.10;;;16.60;99.90;;;;;;6248799;23;20234;-92
2021/07/26 07:53:21;;;;;;;1.90;0.90;;;16.60;99.90;;;;;;6247088;23;20183;-91
2021/07/26 07:55:53;;;;;;;1.23;1.10;;;16.60;99.90;;;;;;6250235;23;20202;-90
2021/07/26 07:58:27;;;;;;;1.70;1.20;;;16.50;99.90;;;;;;6249749;23;20191;-91
2021/07/26 08:00:58;;;;;;;1.60;1.00;;;16.50;99.90;;;;;;6250050;23;20664;-90
2021/07/26 08:03:29;;;;;;;2.13;1.10;;;16.50;99.90;;;;;;6247679;23;20234;-90
2021/07/26 08:06:04;;;;;;;1.50;1.40;;;16.50;99.90;;;;;;6248913;23;20190;-91
2021/07/26 08:08:35;;;;;;;1.10;1.00;;;16.50;99.90;;;;;;6222478;23;20206;-90
2021/07/26 08:11:08;;;;;;;2.87;1.07;;;16.40;99.90;;;;;;6248187;23;20666;-90
2021/07/26 08:13:41;;;;;;;2.27;1.20;;;16.30;99.90;;;;;;6247222;23;20195;-90
2021/07/26 08:16:13;;;;;;;1.80;1.00;;;16.30;99.90;;;;;;6247540;23;20241;-91
2021/07/26 08:19:00;;;;;;;1.47;0.93;;;16.30;99.90;;;;;;6247601;23;20179;-91
2021/07/26 08:21:31;;;;;;;2.00;1.03;;;16.30;99.90;;;;;;6246593;23;20227;-91
2021/07/26 08:24:03;;;;;;;1.20;0.77;;;16.30;99.90;;;;;;6247869;23;20222;-91
2021/07/26 08:26:35;;;;;;;0.80;0.80;;;16.30;99.90;;;;;;6223450;23;20199;-90
2021/07/26 08:29:07;;;;;;;1.13;0.93;;;16.20;99.90;;;;;;6253411;23;20180;-92
2021/07/26 08:31:38;;;;;;;1.80;0.93;;;16.20;99.90;;;;;;6255025;23;20587;-91
2021/07/26 08:34:09;;;;;;;2.17;1.23;;;16.20;99.90;;;;;;6252883;23;20187;-92
2021/07/26 08:36:41;;;;;;;1.37;1.00;;;16.10;99.90;;;;;;6251421;23;20160;-92
2021/07/26 08:39:13;;;;;;;1.83;1.10;;;16.10;99.90;;;;;;6250179;23;20180;-91
2021/07/26 08:41:44;;;;;;;1.17;0.90;;;16.10;99.90;;;;;;6251268;23;20176;-91
2021/07/26 08:44:17;;;;;;;1.50;1.03;;;16.10;99.90;;;;;;6264895;23;20164;-91
2021/07/26 08:46:51;;;;;;;2.17;1.10;;;16.00;99.90;;;;;;6223989;23;20195;-91
2021/07/26 08:49:24;;;;;;;2.97;1.10;;;16.00;99.90;;;;;;6246824;23;20175;-92
2021/07/26 08:51:55;;;;;;;3.87;1.17;;;16.00;99.90;;;;;;6220716;23;20484;-91
2021/07/26 08:54:30;;;;;;;2.33;0.97;;;16.00;99.90;;;;;;6247801;23;20631;-91
2021/07/26 08:57:04;;;;;;;2.37;1.33;;;16.00;99.90;;;;;;6248171;23;20168;-91
2021/07/26 08:59:38;;;;;;;1.73;1.10;;;16.00;99.90;;;;;;6221718;23;20530;-91
2021/07/26 09:02:09;;;;;;;1.90;0.90;;;16.10;99.90;;;;;;6246336;23;20191;-91
2021/07/26 09:04:40;;;;;;;2.43;1.20;;;16.00;99.90;;;;;;6248601;23;20247;-91
2021/07/26 09:07:12;;;;;;;1.93;1.30;;;15.90;99.90;;;;;;6248497;23;20179;-91
2021/07/26 09:09:45;;;;;;;3.33;1.13;;;15.90;99.90;;;;;;6247788;23;22453;-90
2021/07/26 09:12:32;;;;;;;1.13;1.03;;;15.90;99.90;;;;;;6247975;23;20475;-91
2021/07/26 09:15:06;;;;;;;1.57;1.07;;;15.90;99.90;;;;;;6223248;23;20242;-91
2021/07/26 09:17:41;;;;;;;2.60;1.23;;;15.90;99.90;;;;;;6230505;23;20194;-91
2021/07/26 09:20:13;;;;;;;1.50;1.20;;;15.80;99.90;;;;;;6270842;22;20274;-91
2021/07/26 09:22:46;;;;;;;1.67;1.20;;;15.80;99.90;;;;;;6262099;23;20176;-91
2021/07/26 09:25:21;;;;;;;1.93;1.00;;;15.80;99.90;;;;;;6259122;23;20191;-92
2021/07/26 09:28:05;;;;;;;3.03;1.33;;;15.80;99.90;;;;;;6259224;23;20217;-92
2021/07/26 09:30:43;;;;;;;4.23;1.23;;;15.80;99.90;;;;;;6253251;23;20230;-93
2021/07/26 09:33:20;;;;;;;1.30;1.20;;;15.80;99.90;;;;;;6246649;23;20171;-89
2021/07/26 09:36:06;;;;;;;2.93;1.33;;;15.80;99.90;;;;;;6222080;23;20164;-93
2021/07/26 09:38:43;;;;;;;2.27;1.30;;;15.70;99.90;;;;;;6248310;23;20164;-92
2021/07/26 09:41:14;;;;;;;2.60;1.10;;;15.70;99.90;;;;;;6248268;23;20630;-92
2021/07/26 09:43:45;;;;;;;3.67;1.30;;;15.70;99.90;;;;;;6249416;23;20190;-92
2021/07/26 09:46:29;;;;;;;2.37;1.57;;;15.70;99.90;;;;;;6248109;23;20176;-93
2021/07/26 09:49:13;;;;;;;2.90;1.37;;;15.70;99.90;;;;;;6248118;23;20176;-93
2021/07/26 09:52:03;;;;;;;4.07;1.50;;;15.60;99.90;;;;;;6247209;23;20222;-94
2021/07/26 09:54:48;;;;;;;4.60;1.20;;;15.50;99.90;;;;;;6272437;22;20186;-91
2021/07/26 09:57:20;;;;;;;2.40;1.30;;;15.50;99.90;;;;;;6272661;22;20155;-91
2021/07/26 09:59:52;;;;;;;2.53;1.33;;;15.50;99.90;;;;;;6260646;22;20183;-91
2021/07/26 10:02:27;;;;;;;3.47;1.10;;;15.40;99.90;;;;;;6220721;23;20222;-91
2021/07/26 10:04:59;;;;;;;3.13;1.30;;;15.40;99.90;;;;;;6248151;23;20190;-91
2021/07/26 10:07:30;;;;;;;1.87;1.10;;;15.40;99.90;;;;;;6248305;23;20186;-92
2021/07/26 10:10:01;;;;;;;1.73;1.40;;;15.40;99.90;;;;;;6247787;23;20192;-91
2021/07/26 10:12:33;;;;;;;2.23;1.07;;;15.40;99.90;;;;;;6246904;23;20183;-92
2021/07/26 10:15:04;;;;;;;2.57;1.27;;;15.30;99.90;;;;;;6253918;23;20175;-91
2021/07/26 10:17:39;;;;;;;2.10;1.33;;;15.30;99.90;;;;;;6249564;23;20207;-91
2021/07/26 10:20:11;;;;;;;2.27;1.00;;;15.30;99.90;;;;;;6247801;23;20175;-91
2021/07/26 10:22:44;;;;;;;2.33;1.20;;;15.40;99.90;;;;;;6248654;23;20615;-91
2021/07/26 10:25:20;;;;;;;3.57;1.20;;;15.30;99.90;;;;;;6248008;23;20183;-92
2021/07/26 10:27:53;;;;;;;3.47;1.53;;;15.20;99.90;;;;;;6249615;23;20175;-92
2021/07/26 10:30:36;;;;;;;1.10;1.00;;;15.30;99.90;;;;;;6248529;23;20187;-93
2021/07/26 10:33:09;;;;;;;2.00;1.00;;;15.30;99.90;;;;;;6247986;23;20175;-93
2021/07/26 10:35:50;;;;;;;2.73;1.10;;;15.30;99.90;;;;;;6251025;23;20198;-93
2021/07/26 10:39:05;;;;;;;1.80;1.13;;;15.30;99.90;;;;;;6250549;23;20175;-93
2021/07/26 10:42:05;;;;;;;2.07;1.10;;;15.20;99.90;;;;;;6157931;23;20197;-92
2021/07/26 10:44:46;;;;;;;1.20;1.00;;;15.20;99.90;;;;;;6158420;23;20186;-93
2021/07/26 10:47:17;;;;;;;1.90;1.20;;;15.30;99.90;;;;;;6163366;23;20201;-92
2021/07/26 10:50:12;;;;;;;2.10;1.07;;;15.20;99.90;;;;;;6212492;23;20179;-91
2021/07/26 10:52:50;;;;;;;2.27;1.37;;;15.30;99.90;;;;;;6262106;22;20191;-92
2021/07/26 10:55:56;;;;;;;3.37;1.30;;;15.20;99.90;;;;;;6262620;22;20171;-92
2021/07/26 10:59:04;;;;;;;2.07;1.20;;;15.20;99.90;;;;;;6267566;22;20171;-91
2021/07/26 11:01:42;;;;;;;1.23;1.00;;;15.10;99.90;;;;;;6271081;22;20159;-92
2021/07/26 11:04:35;;;;;;;2.13;1.40;;;15.10;99.90;;;;;;6263511;23;20184;-91
2021/07/26 11:07:12;;;;;;;2.67;1.20;;;15.10;99.90;;;;;;6263823;23;20637;-91
2021/07/26 11:09:48;;;;;;;1.63;1.30;;;15.10;99.90;;;;;;6248267;23;20176;-91
2021/07/26 11:12:51;;;;;;;1.20;0.80;;;15.10;99.90;;;;;;6247795;23;20599;-90
2021/07/26 11:15:25;;;;;;;2.20;1.30;;;15.10;99.90;;;;;;6249394;23;20187;-91
2021/07/26 11:18:18;;;;;;;2.10;0.90;;;15.10;99.90;;;;;;6248488;23;20234;-91
2021/07/26 11:21:00;;;;;;;1.57;1.10;;;15.00;99.90;;;;;;6248898;23;20247;-91
2021/07/26 11:23:50;;;;;;;1.90;1.20;;;15.00;99.90;;;;;;6247056;23;20182;-91
2021/07/26 11:26:23;;;;;;;1.77;1.20;;;15.00;99.90;;;;;;6249414;23;20179;-92
2021/07/26 11:28:56;;;;;;;2.50;1.50;;;15.00;99.90;;;;;;6248306;23;20195;-92
2021/07/26 11:31:39;;;;;;;2.53;1.37;;;15.00;99.90;;;;;;6248141;23;20204;-92
2021/07/26 11:34:14;;;;;;;2.60;1.07;;;15.00;99.90;;;;;;6248910;23;20633;-92
2021/07/26 11:37:07;;;;;;;3.00;1.20;;;15.00;99.90;;;;;;6249240;23;20198;-92
2021/07/26 11:39:51;;;;;;;3.23;1.30;;;15.00;99.90;;;;;;6248113;23;20247;-91
2021/07/26 11:42:25;;;;;;;2.33;1.20;;;15.00;99.90;;;;;;6247763;23;20183;-91
2021/07/26 11:44:59;;;;;;;1.63;1.20;;;15.00;99.90;;;;;;6248711;23;20636;-91
2021/07/26 11:47:35;;;;;;;2.27;1.53;;;15.00;99.90;;;;;;6249605;23;20195;-91
2021/07/26 11:50:08;;;;;;;2.50;1.27;;;15.00;99.90;;;;;;6250083;23;20173;-92
2021/07/26 11:52:40;;;;;;;1.30;1.10;;;14.90;99.90;;;;;;6247428;23;20206;-92
2021/07/26 11:55:17;;;;;;;2.50;1.30;;;14.90;99.90;;;;;;6249061;23;20181;-90
2021/07/26 11:57:57;;;;;;;2.53;1.10;;;14.90;99.90;;;;;;6248588;23;20203;-90
2021/07/26 12:00:31;;;;;;;2.63;1.20;;;14.80;99.90;;;;;;6222595;23;20182;-91
2021/07/26 12:03:03;;;;;;;2.00;1.17;;;14.90;99.90;;;;;;6248606;23;20176;-90
2021/07/26 12:05:35;;;;;;;4.77;1.23;;;14.90;99.90;;;;;;6249568;23;20167;-91
2021/07/26 12:08:14;;;;;;;2.37;1.27;;;14.90;99.90;;;;;;6249158;23;20179;-90
2021/07/26 12:10:48;;;;;;;2.87;1.03;;;14.80;99.90;;;;;;6250299;23;20172;-91
2021/07/26 12:13:20;;;;;;;1.57;1.27;;;14.90;99.90;;;;;;6269534;22;20195;-91
2021/07/26 12:15:52;;;;;;;2.50;1.43;;;14.90;99.90;;;;;;6273525;22;20164;-91
2021/07/26 12:18:38;;;;;;;2.30;1.30;;;14.80;99.90;;;;;;6261424;22;20175;-92
2021/07/26 12:21:11;;;;;;;2.67;1.20;;;14.90;99.90;;;;;;6251265;23;20638;-91
2021/07/26 12:23:47;;;;;;;2.50;1.20;;;14.90;99.90;;;;;;6248188;23;20179;-91
2021/07/26 12:26:26;;;;;;;2.27;1.20;;;14.90;99.90;;;;;;6249213;23;20259;-92
2021/07/26 12:28:58;;;;;;;1.70;1.17;;;14.90;99.90;;;;;;6258392;23;20271;-91
2021/07/26 12:31:31;;;;;;;2.17;1.13;;;14.90;99.90;;;;;;6268834;23;20206;-92
2021/07/26 12:34:16;;;;;;;1.83;1.53;;;14.90;99.90;;;;;;6251355;23;20191;-92
2021/07/26 12:36:47;;;;;;;3.70;1.67;;;14.90;99.90;;;;;;6248636;23;20191;-92
2021/07/26 12:39:19;;;;;;;2.90;1.40;;;14.90;99.90;;;;;;6249216;23;20183;-92
2021/07/26 12:41:53;;;;;;;1.80;1.30;;;14.80;99.90;;;;;;6247429;23;20266;-93
2021/07/26 12:44:30;;;;;;;2.47;1.50;;;14.80;99.90;;;;;;6248937;23;20218;-92
2021/07/26 12:47:01;;;;;;;3.17;1.37;;;14.70;99.90;;;;;;6248926;23;20195;-92
2021/07/26 12:49:32;;;;;;;2.93;1.40;;;14.70;99.90;;;;;;6248669;23;20238;-93
2021/07/26 12:52:04;;;;;;;1.83;1.43;;;14.80;99.90;;;;;;6221454;23;20191;-92
2021/07/26 12:54:44;;;;;;;3.03;1.50;;;14.80;99.90;;;;;;6223041;23;20202;-92
2021/07/26 12:57:18;;;;;;;3.10;1.30;;;14.70;99.90;;;;;;6249246;23;20222;-91
2021/07/26 12:59:48;;;;;;;3.23;1.20;;;14.80;99.90;;;;;;6248788;23;20176;-91
2021/07/26 13:02:19;;;;;;;2.47;1.43;;;14.80;99.90;;;;;;6246543;23;20180;-91
2021/07/26 13:04:51;;;;;;;3.30;1.57;;;14.80;99.90;;;;;;6247893;23;20183;-92
2021/07/26 13:07:22;;;;;;;2.43;1.20;;;14.80;99.90;;;;;;6247585;23;20622;-91
2021/07/26 13:09:53;;;;;;;1.93;1.60;;;14.80;99.90;;;;;;6221516;23;20206;-91
2021/07/26 13:12:26;;;;;;;3.53;1.50;;;14.90;99.90;;;;;;6246654;23;20282;-92
2021/07/26 13:15:01;;;;;;;2.80;1.40;;;14.90;99.90;;;;;;6248234;23;20594;-92
2021/07/26 13:17:32;;;;;;;3.73;1.47;;;14.90;99.90;;;;;;6247651;23;20707;-90
2021/07/26 13:20:08;;;;;;;2.13;1.43;;;15.00;99.90;;;;;;6247627;23;20268;-91
2021/07/26 13:22:40;;;;;;;3.70;1.20;;;15.00;99.90;;;;;;6246350;23;20172;-90
2021/07/26 13:25:12;;;;;;;2.57;1.47;;;15.10;99.90;;;;;;6247811;23;20228;-91
2021/07/26 13:27:44;;;;;;;2.03;1.40;;;15.10;99.90;;;;;;6248012;23;20641;-91